Calvin Habib

Calvin Habib

Statistiques 2026

  • Courses courues : 605
  • Nb de victoires : 72
  • Nb de places : 210
  • Écart gagnant : -
  • Réussite à la gagne : 12%
  • Réussite à la place : 35%
Musique : 1p 3p 0p 0p 3p 3p 6p 2p 5p 6p 2p 7p 7p 2p 3p 5p 1p 2p
DateRangCatégorieAlloc.Dist.HippodromeChevalPoidsSpé.
07/03/19 4 Galop 6 429€ SAF-VAAL Visuality 57,5 Plat
14/03/19 4 Galop 6 866€ SAF-VAAL Syx Shooter 60 Plat
14/03/19 8 Galop 6 429€ SAF-VAAL Florence 56 Plat
14/03/19 14 Galop 5 056€ SAF-VAAL Basilica Santo 59 Plat
14/03/19 2 Galop 5 056€ SAF-VAAL Twister Vortex 54,5 Plat
28/03/19 11 Galop 6 866€ SAF-VAAL Toro Bravo 60 Plat
28/03/19 14 Galop 6 866€ SAF-VAAL Cloudless Sky 60 Plat
28/03/19 9 Galop 6 866€ SAF-VAAL Catch A Glimpse 60 Plat
28/03/19 10 Galop 5 056€ SAF-VAAL Leftrightgoodnight 54 Plat
28/03/19 12 Galop 5 056€ SAF-VAAL Patric 56 Plat
02/07/19 11 Mixte 5 695€ SAF-VAAL Miss Caruso 60 Plat
02/07/19 10 Mixte 5 695€ SAF-VAAL My Secret 60 Plat
02/07/19 7 Mixte 3 597€ SAF-VAAL Country Squire 57,5 Plat
02/07/19 11 Mixte 5 695€ SAF-VAAL Glitter Path 60 Plat
01/08/19 2 Galop 5 963€ SAF-VAAL Two Paths 57,5 Plat
01/08/19 8 Galop 5 963€ SAF-VAAL Callibra 60 Plat
01/08/19 5 Galop 6 277€ SAF-VAAL Look To The Sky 58,5 Plat
01/08/19 0 Galop 7 658€ SAF-VAAL Premier Show 55 Plat
01/08/19 1 Galop 5 524€ SAF-VAAL Lighthearted 53,5 Plat
06/08/19 10 Galop 5 986€ SAF-VAAL Dancing Inthe Rain 57 Plat
06/08/19 2 Galop 5 986€ SAF-VAAL Little Sparrow 60 Plat
06/08/19 7 Galop 5 545€ SAF-VAAL Corrido 59 Plat
06/08/19 2 Galop 6 301€ SAF-VAAL Artemisia 57,5 Plat
06/08/19 7 Galop 7 057€ SAF-VAAL Circle Of Latitude 56 Plat
06/08/19 5 Galop 5 545€ SAF-VAAL Emerald Bay 56 Plat
26/09/19 4 Galop 5 678€ SAF-VAAL Lord Grantham 60 Plat
19/12/19 16 Galop 5 541€ SAF-VAAL Mr Turbulence 60 Plat
19/12/19 10 Galop 5 541€ SAF-VAAL Waltzing Al 60 Plat
02/01/20 9 Galop 5 541€ SAF-VAAL Believe In Dreams 60 Plat
02/01/20 7 Galop 5 541€ SAF-VAAL Rooipoort 59 Plat
02/01/20 12 Galop 5 541€ SAF-VAAL Warm Applause 59 Plat
02/01/20 8 Galop 5 541€ SAF-VAAL Up Early 59 Plat
02/01/20 7 Galop 6 157€ SAF-VAAL Veritas 54 Plat
02/01/20 10 Galop 4 002€ SAF-VAAL Jenny Mcgee 60,5 Plat
02/01/20 15 Galop 4 618€ SAF-VAAL Fire Side 54 Plat
16/01/20 8 Galop 5 725€ SAF-VAAL Dance Class 60 Plat
16/01/20 0 Galop 8 269€ SAF-VAAL Clever Guy 56 Plat
16/01/20 9 Galop 5 089€ SAF-VAAL Tartan Dancer 60 Plat
16/01/20 6 Galop 5 725€ SAF-VAAL Jive Express 58 Plat
16/01/20 14 Galop 5 725€ SAF-VAAL Zig Zag 60 Plat
30/01/20 9 Galop 5 725€ SAF-VAAL Maitreya 60 Plat
30/01/20 8 Galop 5 725€ SAF-VAAL Westwing Belter 54,5 Plat
30/01/20 4 Galop 6 997€ SAF-VAAL Bien Venue 59 Plat
30/01/20 7 Galop 6 361€ SAF-VAAL Seventh Of June 56 Plat
13/02/20 5 Galop 5 725€ SAF-VAAL Encryption 54,5 Plat
13/02/20 5 Galop 4 770€ SAF-VAAL Bush Fever 54,5 Plat
27/02/20 11 Galop 5 725€ SAF-VAAL Hold Your Horses 60 Plat
27/02/20 3 Galop 5 725€ SAF-VAAL Crank It Up 60 Plat
27/02/20 11 Galop 5 725€ SAF-VAAL Matoaka 60 Plat
27/02/20 7 Galop 6 361€ SAF-VAAL Pilgrim's Progress 56,5 Plat